Terminal Aerodrome Forecast
Issued by NWS

Home | Current Version | Previous Version | Text Only | Print | Product List | Glossary On
Versions: 1 2 3 4 5 6 7 8 9 10 11 12 13 14 15 16 17 18 19
000
FTUS43 KMPX 301743
TAFRWF
TAF
KRWF 301743Z 3018/3118 18011KT P6SM OVC010
     FM302000 18010KT P6SM BKN012
     FM302200 26007KT P6SM SCT015
     FM310900 31008KT P6SM FEW020=

USA.gov is the U.S. government's official web portal to all federal, state and local government web resources and services.